Time;durP1;ratioP1;P1;durP2;ratioP2;P2;SDS_P1;SDS_P2;PMS_P1;PMS_P2;Temp;Humidity;BMP_temperature;BMP_pressure;BME280_temperature;BME280_humidity;BME280_pressure;Samples;Min_cycle;Max_cycle;Signal;HPM_P1;HPM_P2
2024/01/20 00:02:16;;;;;;;22.90;5.63;;;3.70;99.90;;;;;;5050939;28;20029;-73
2024/01/20 00:04:42;;;;;;;23.65;5.18;;;3.70;99.90;;;;;;5050904;28;20533;-73
2024/01/20 00:07:08;;;;;;;16.60;4.68;;;3.70;99.90;;;;;;5050103;28;20075;-74
2024/01/20 00:09:33;;;;;;;25.33;5.57;;;3.80;99.90;;;;;;5050720;28;20048;-74
2024/01/20 00:11:59;;;;;;;23.40;5.13;;;3.70;99.90;;;;;;5051381;28;20032;-73
2024/01/20 00:14:24;;;;;;;18.02;4.45;;;3.80;99.90;;;;;;5051900;28;20017;-74
2024/01/20 00:16:50;;;;;;;27.90;4.60;;;3.80;99.90;;;;;;5050749;28;20032;-74
2024/01/20 00:19:16;;;;;;;20.77;5.13;;;3.80;99.90;;;;;;5051442;28;20503;-73
2024/01/20 00:21:41;;;;;;;21.83;4.90;;;3.80;99.90;;;;;;5050739;28;20124;-73
2024/01/20 00:24:07;;;;;;;27.58;4.95;;;3.80;99.90;;;;;;5050853;28;20479;-74
2024/01/20 00:26:33;;;;;;;19.55;4.95;;;3.70;99.90;;;;;;5050190;28;20365;-73
2024/01/20 00:28:59;;;;;;;19.48;4.93;;;3.80;99.90;;;;;;5050626;28;20055;-74
2024/01/20 00:31:24;;;;;;;19.02;4.93;;;3.80;99.90;;;;;;5050729;28;20021;-74
2024/01/20 00:33:50;;;;;;;28.85;5.20;;;3.80;99.90;;;;;;5050686;28;20036;-72
2024/01/20 00:36:16;;;;;;;22.15;5.10;;;3.90;99.90;;;;;;5049860;28;20123;-74
2024/01/20 00:38:42;;;;;;;19.05;4.85;;;3.80;99.90;;;;;;5051379;28;20079;-74
2024/01/20 00:41:10;;;;;;;22.00;4.88;;;3.80;99.90;;;;;;5057885;28;20020;-73
2024/01/20 00:43:36;;;;;;;21.73;4.85;;;3.80;99.90;;;;;;5058100;28;20145;-73
2024/01/20 00:46:02;;;;;;;13.63;4.55;;;3.80;99.90;;;;;;5057301;28;20712;-73
2024/01/20 00:48:27;;;;;;;23.80;5.05;;;3.90;99.90;;;;;;5056739;28;20047;-73
2024/01/20 00:50:53;;;;;;;28.85;5.70;;;3.80;99.90;;;;;;5057352;28;20108;-73
2024/01/20 00:53:18;;;;;;;18.70;5.13;;;3.80;99.90;;;;;;5056964;28;20434;-73
2024/01/20 00:55:44;;;;;;;29.17;5.88;;;3.80;99.90;;;;;;5056376;28;20028;-73
2024/01/20 00:58:10;;;;;;;19.52;4.70;;;3.80;99.90;;;;;;5057023;28;20021;-74
2024/01/20 01:00:37;;;;;;;26.65;5.18;;;3.80;99.90;;;;;;5053781;28;20048;-74
2024/01/20 01:03:03;;;;;;;19.67;4.93;;;3.80;99.90;;;;;;5051953;28;20116;-74
2024/01/20 01:05:29;;;;;;;22.48;4.60;;;3.80;99.90;;;;;;5055964;28;20013;-74
2024/01/20 01:07:55;;;;;;;20.40;4.53;;;3.70;99.90;;;;;;5057151;28;20039;-74
2024/01/20 01:10:21;;;;;;;24.65;4.82;;;3.80;99.90;;;;;;5057377;28;20383;-72
2024/01/20 01:12:47;;;;;;;20.33;5.55;;;3.80;99.90;;;;;;5057189;28;20021;-73
2024/01/20 01:15:12;;;;;;;24.30;5.70;;;3.70;99.90;;;;;;5056207;28;20029;-74
2024/01/20 01:17:38;;;;;;;16.95;4.57;;;3.80;99.90;;;;;;5057038;28;20028;-73
2024/01/20 01:20:04;;;;;;;19.33;5.13;;;3.80;99.90;;;;;;5057325;28;20083;-74
2024/01/20 01:22:30;;;;;;;17.33;4.70;;;3.80;99.90;;;;;;5057172;28;20013;-72
2024/01/20 01:24:55;;;;;;;26.52;5.40;;;3.80;99.90;;;;;;5056756;28;20443;-73
2024/01/20 01:27:21;;;;;;;27.10;5.30;;;3.80;99.90;;;;;;5056418;28;20021;-73
2024/01/20 01:29:46;;;;;;;28.02;5.00;;;3.80;99.90;;;;;;5057002;28;20044;-73
2024/01/20 01:32:12;;;;;;;24.92;5.53;;;3.80;99.90;;;;;;5057038;28;20128;-74
2024/01/20 01:34:38;;;;;;;29.60;5.40;;;3.80;99.90;;;;;;5056986;28;20511;-73
2024/01/20 01:37:03;;;;;;;19.00;5.30;;;3.70;99.90;;;;;;5056093;28;20488;-74
2024/01/20 01:39:29;;;;;;;18.58;6.05;;;3.80;99.90;;;;;;5056571;28;20064;-73
2024/01/20 01:41:55;;;;;;;24.45;5.72;;;3.70;99.90;;;;;;5056193;28;20083;-72
2024/01/20 01:44:20;;;;;;;24.27;5.40;;;3.80;99.90;;;;;;5056748;28;20032;-73
2024/01/20 01:46:46;;;;;;;18.02;5.60;;;3.80;99.90;;;;;;5056143;28;20033;-73
2024/01/20 01:49:12;;;;;;;21.55;5.28;;;3.80;99.90;;;;;;5056580;28;20488;-73
2024/01/20 01:51:38;;;;;;;27.38;6.47;;;3.70;99.90;;;;;;5051953;28;20033;-73
2024/01/20 01:54:04;;;;;;;19.40;6.00;;;3.70;99.90;;;;;;5053043;28;20029;-73
2024/01/20 01:56:30;;;;;;;23.75;6.15;;;3.80;99.90;;;;;;5052806;28;20025;-73
2024/01/20 01:58:56;;;;;;;16.73;5.55;;;3.80;99.90;;;;;;5053528;28;20353;-75
2024/01/20 02:01:23;;;;;;;18.83;5.93;;;3.70;99.90;;;;;;5053479;28;20544;-73
2024/01/20 02:03:48;;;;;;;25.92;6.40;;;3.70;99.90;;;;;;5053514;28;20475;-73
2024/01/20 02:06:14;;;;;;;25.98;6.43;;;3.70;99.90;;;;;;5052352;28;20027;-73
2024/01/20 02:08:41;;;;;;;25.92;6.60;;;3.60;99.90;;;;;;5053028;28;20029;-73
2024/01/20 02:11:07;;;;;;;18.88;6.95;;;3.50;99.90;;;;;;5053466;28;20029;-74
2024/01/20 02:13:34;;;;;;;27.80;6.95;;;3.60;99.90;;;;;;5051729;28;20033;-73
2024/01/20 02:16:03;;;;;;;19.17;6.53;;;3.60;99.90;;;;;;5052373;28;20033;-74
2024/01/20 02:18:29;;;;;;;26.30;7.75;;;3.50;99.90;;;;;;5053056;28;20109;-73
2024/01/20 02:20:55;;;;;;;29.92;7.60;;;3.60;99.90;;;;;;5052759;28;20448;-73
2024/01/20 02:23:21;;;;;;;33.67;8.00;;;3.60;99.90;;;;;;5053463;28;20025;-73
2024/01/20 02:25:47;;;;;;;26.38;8.00;;;3.60;99.90;;;;;;5052865;28;20029;-73
2024/01/20 02:28:13;;;;;;;28.90;8.40;;;3.50;99.90;;;;;;5052201;28;20056;-74
2024/01/20 02:30:43;;;;;;;31.13;8.63;;;3.50;99.90;;;;;;5043644;28;20485;-74
2024/01/20 02:33:09;;;;;;;24.00;8.82;;;3.50;99.90;;;;;;5052705;28;20554;-74
2024/01/20 02:35:34;;;;;;;25.95;8.88;;;3.40;99.90;;;;;;5052246;28;20128;-74
2024/01/20 02:38:01;;;;;;;28.85;8.95;;;3.50;99.90;;;;;;5052746;28;20090;-74
2024/01/20 02:40:27;;;;;;;22.25;9.32;;;3.50;99.90;;;;;;5053525;28;20025;-74
2024/01/20 02:42:52;;;;;;;26.77;9.43;;;3.50;99.90;;;;;;5052749;28;20025;-75
2024/01/20 02:45:18;;;;;;;34.75;9.75;;;3.50;99.90;;;;;;5052170;28;20047;-75
2024/01/20 02:47:44;;;;;;;28.08;9.85;;;3.40;99.90;;;;;;5052364;28;20029;-74
2024/01/20 02:50:10;;;;;;;23.02;9.75;;;3.50;99.90;;;;;;5053352;28;20403;-74
2024/01/20 02:52:35;;;;;;;30.83;10.13;;;3.50;99.90;;;;;;5053516;28;20036;-72
2024/01/20 02:55:01;;;;;;;24.73;9.60;;;3.40;99.90;;;;;;5054660;28;20036;-73
2024/01/20 02:57:27;;;;;;;31.20;10.48;;;3.50;99.90;;;;;;5054015;28;20025;-73
2024/01/20 02:59:52;;;;;;;30.92;10.63;;;3.50;99.90;;;;;;5064258;28;20175;-74
2024/01/20 03:02:18;;;;;;;34.70;10.35;;;3.50;99.90;;;;;;5072299;28;20499;-73
2024/01/20 03:04:44;;;;;;;38.85;11.55;;;3.40;99.90;;;;;;5073753;28;20025;-74
2024/01/20 03:07:09;;;;;;;34.10;11.40;;;3.50;99.90;;;;;;5072332;28;20030;-73
2024/01/20 03:09:35;;;;;;;28.65;11.02;;;3.50;99.90;;;;;;5072069;28;20028;-75
2024/01/20 03:12:01;;;;;;;34.00;10.70;;;3.50;99.90;;;;;;5071973;28;20027;-74
2024/01/20 03:14:27;;;;;;;28.55;10.82;;;3.50;99.90;;;;;;5072176;28;20028;-74
2024/01/20 03:16:52;;;;;;;32.35;11.60;;;3.40;99.90;;;;;;5072266;28;20024;-74
2024/01/20 03:19:18;;;;;;;28.38;10.77;;;3.40;99.90;;;;;;5073456;28;20027;-73
2024/01/20 03:21:44;;;;;;;31.30;10.75;;;3.40;99.90;;;;;;5086828;28;20036;-73
2024/01/20 03:24:10;;;;;;;28.50;10.90;;;3.40;99.90;;;;;;5097276;28;20027;-74
2024/01/20 03:26:35;;;;;;;27.80;10.93;;;3.40;99.90;;;;;;5096716;28;20025;-74
2024/01/20 03:29:01;;;;;;;33.00;11.32;;;3.40;99.90;;;;;;5096633;28;20392;-74
2024/01/20 03:31:27;;;;;;;29.52;11.45;;;3.40;99.90;;;;;;5067860;28;20033;-73
2024/01/20 03:33:52;;;;;;;36.55;12.43;;;3.40;99.90;;;;;;5052723;28;20071;-74
2024/01/20 03:36:18;;;;;;;30.52;10.60;;;3.40;99.90;;;;;;5069809;28;20032;-74
2024/01/20 03:38:43;;;;;;;31.27;11.60;;;3.40;99.90;;;;;;5049491;28;20028;-75
2024/01/20 03:41:09;;;;;;;36.35;11.60;;;3.40;99.90;;;;;;5051358;28;20257;-73
2024/01/20 03:43:35;;;;;;;31.83;12.30;;;3.40;99.90;;;;;;5051372;28;20052;-74
2024/01/20 03:46:00;;;;;;;30.02;12.15;;;3.40;99.90;;;;;;5050771;28;20475;-74
2024/01/20 03:48:26;;;;;;;33.33;12.32;;;3.30;99.90;;;;;;5050291;28;20127;-74
2024/01/20 03:50:51;;;;;;;37.65;12.32;;;3.30;99.90;;;;;;5051170;28;20033;-73
2024/01/20 03:53:17;;;;;;;28.15;11.93;;;3.30;99.90;;;;;;5051728;28;20033;-75
2024/01/20 03:55:42;;;;;;;30.80;12.18;;;3.30;99.90;;;;;;5051255;28;20052;-73
2024/01/20 03:58:08;;;;;;;35.05;12.20;;;3.30;99.90;;;;;;5051255;28;20547;-73
2024/01/20 04:00:34;;;;;;;35.65;13.07;;;3.30;99.90;;;;;;5051831;28;20017;-73
2024/01/20 04:02:59;;;;;;;37.53;12.85;;;3.30;99.90;;;;;;5051279;28;20382;-73
2024/01/20 04:05:25;;;;;;;33.53;12.52;;;3.20;99.90;;;;;;5050191;28;20029;-74
2024/01/20 04:07:50;;;;;;;32.47;13.25;;;3.20;99.90;;;;;;5051023;28;20079;-74
2024/01/20 04:10:17;;;;;;;44.28;13.32;;;3.20;99.90;;;;;;5051402;28;20112;-73
2024/01/20 04:12:43;;;;;;;44.70;14.98;;;3.20;99.90;;;;;;5051115;28;20017;-73
2024/01/20 04:15:09;;;;;;;33.17;14.38;;;3.20;99.90;;;;;;5049805;28;20025;-74
2024/01/20 04:17:35;;;;;;;30.65;13.43;;;3.20;99.90;;;;;;5050938;28;20025;-72
2024/01/20 04:20:00;;;;;;;28.42;14.10;;;3.20;99.90;;;;;;5051151;28;20024;-73
2024/01/20 04:22:26;;;;;;;39.20;14.00;;;3.20;99.90;;;;;;5051080;28;20112;-74
2024/01/20 04:24:51;;;;;;;34.22;14.55;;;3.20;99.90;;;;;;5050873;28;20024;-72
2024/01/20 04:27:17;;;;;;;31.77;14.50;;;3.00;99.90;;;;;;5050112;28;20031;-72
2024/01/20 04:29:42;;;;;;;38.72;15.88;;;3.10;99.90;;;;;;5050807;28;20415;-72
2024/01/20 04:32:08;;;;;;;31.80;15.23;;;3.10;99.90;;;;;;5050358;28;20052;-74
2024/01/20 04:34:33;;;;;;;36.75;15.02;;;3.00;99.90;;;;;;5050259;28;20028;-73
2024/01/20 04:36:59;;;;;;;41.95;16.83;;;3.10;99.90;;;;;;5050034;28;20091;-73
2024/01/20 04:39:25;;;;;;;29.13;16.05;;;3.10;99.90;;;;;;5050638;28;20035;-73
2024/01/20 04:41:50;;;;;;;41.08;16.02;;;3.10;99.90;;;;;;5051037;28;20472;-73
2024/01/20 04:44:16;;;;;;;33.78;15.98;;;3.10;99.90;;;;;;5050861;28;20021;-73
2024/01/20 04:46:41;;;;;;;41.58;17.88;;;3.10;99.90;;;;;;5051028;28;20116;-74
2024/01/20 04:49:07;;;;;;;42.75;17.63;;;3.10;99.90;;;;;;5051436;28;20163;-76
2024/01/20 04:51:33;;;;;;;35.88;16.10;;;3.10;99.90;;;;;;5048622;28;20032;-75
2024/01/20 04:53:58;;;;;;;44.22;18.20;;;3.00;99.90;;;;;;5051864;28;20514;-74
2024/01/20 04:56:24;;;;;;;41.28;18.15;;;3.20;99.90;;;;;;5053671;28;20025;-74
2024/01/20 04:58:50;;;;;;;35.92;17.10;;;3.10;99.90;;;;;;5051689;28;20092;-73
2024/01/20 05:01:16;;;;;;;39.42;17.10;;;3.10;99.90;;;;;;5042233;28;20013;-73
2024/01/20 05:03:42;;;;;;;43.72;17.92;;;3.10;99.90;;;;;;5051106;28;20456;-74
2024/01/20 05:06:07;;;;;;;36.92;17.20;;;3.10;99.90;;;;;;5049911;28;20055;-73
2024/01/20 05:08:33;;;;;;;38.05;18.48;;;2.90;99.90;;;;;;5050544;28;20061;-71
2024/01/20 05:10:59;;;;;;;45.70;18.00;;;3.20;99.90;;;;;;5050228;28;20024;-72
2024/01/20 05:13:26;;;;;;;36.63;17.65;;;3.20;99.90;;;;;;5051483;28;20100;-71
2024/01/20 05:15:53;;;;;;;39.63;18.63;;;3.10;99.90;;;;;;5051129;28;20024;-72
2024/01/20 05:18:19;;;;;;;40.65;18.60;;;3.20;99.90;;;;;;5051295;28;20486;-73
2024/01/20 05:20:45;;;;;;;46.42;19.75;;;3.20;99.90;;;;;;5051807;28;20041;-74
2024/01/20 05:23:10;;;;;;;42.05;19.23;;;3.10;99.90;;;;;;5051558;28;20442;-75
2024/01/20 05:25:36;;;;;;;40.63;19.63;;;3.00;99.90;;;;;;5051238;28;20032;-73
2024/01/20 05:28:01;;;;;;;42.95;18.77;;;3.00;99.90;;;;;;5055164;28;20091;-74
2024/01/20 05:30:27;;;;;;;44.25;18.88;;;3.00;99.90;;;;;;5055248;28;20510;-74
2024/01/20 05:32:53;;;;;;;41.85;19.20;;;3.00;99.90;;;;;;5054950;28;20074;-72
2024/01/20 05:35:18;;;;;;;49.55;20.20;;;3.00;99.90;;;;;;5054932;28;20024;-72
2024/01/20 05:37:44;;;;;;;44.88;20.13;;;3.00;99.90;;;;;;5054809;28;20108;-71
2024/01/20 05:40:10;;;;;;;48.83;18.65;;;3.00;99.90;;;;;;5054888;28;20031;-72
2024/01/20 05:42:36;;;;;;;38.80;19.38;;;3.00;99.90;;;;;;5054989;28;20480;-71
2024/01/20 05:45:02;;;;;;;51.10;21.88;;;2.90;99.90;;;;;;5054540;28;20033;-72
2024/01/20 05:47:27;;;;;;;36.30;19.77;;;2.80;99.90;;;;;;5054522;28;20442;-72
2024/01/20 05:49:53;;;;;;;44.38;19.50;;;2.80;99.90;;;;;;5054993;28;20028;-72
2024/01/20 05:52:18;;;;;;;50.72;20.00;;;2.80;99.90;;;;;;5054942;28;20061;-72
2024/01/20 05:54:44;;;;;;;38.38;19.45;;;2.80;99.90;;;;;;5054708;28;20029;-73
2024/01/20 05:57:10;;;;;;;42.40;20.70;;;2.80;99.90;;;;;;5055405;28;20063;-74
2024/01/20 05:59:36;;;;;;;44.42;19.88;;;2.90;99.90;;;;;;5055992;28;20017;-75
2024/01/20 06:02:01;;;;;;;46.92;20.55;;;2.90;99.90;;;;;;5055353;28;20025;-73
2024/01/20 06:04:27;;;;;;;52.70;21.13;;;2.90;99.90;;;;;;5054499;28;20029;-73
2024/01/20 06:06:52;;;;;;;45.80;19.42;;;2.80;99.90;;;;;;5054476;28;20036;-72
2024/01/20 06:09:18;;;;;;;41.22;19.27;;;2.80;99.90;;;;;;5054638;28;20027;-72
2024/01/20 06:11:44;;;;;;;44.83;19.73;;;2.80;99.90;;;;;;5054394;28;20119;-72
2024/01/20 06:14:09;;;;;;;55.28;20.73;;;2.90;99.90;;;;;;5057647;28;20106;-73
2024/01/20 06:16:38;;;;;;;41.53;19.77;;;2.90;99.90;;;;;;5054934;28;20048;-74
2024/01/20 06:19:04;;;;;;;49.33;20.30;;;2.90;99.90;;;;;;5053346;28;20103;-73
2024/01/20 06:21:30;;;;;;;53.55;19.85;;;2.90;99.90;;;;;;5055405;28;20017;-74
2024/01/20 06:23:55;;;;;;;43.33;20.15;;;2.80;99.90;;;;;;5055627;28;20036;-75
2024/01/20 06:26:23;;;;;;;41.15;19.95;;;2.90;99.90;;;;;;5054121;28;20128;-73
2024/01/20 06:28:49;;;;;;;50.53;19.73;;;2.90;99.90;;;;;;5051205;28;20029;-75
2024/01/20 06:31:25;;;;;;;43.30;19.55;;;2.90;99.90;;;;;;5053796;28;20032;-74
2024/01/20 06:33:52;;;;;;;47.15;19.90;;;3.10;99.90;;;;;;5053712;28;20266;-73
2024/01/20 06:36:18;;;;;;;48.30;20.55;;;2.90;99.90;;;;;;5051130;28;20124;-74
2024/01/20 06:38:43;;;;;;;45.90;20.15;;;2.90;99.90;;;;;;5050903;28;20104;-73
2024/01/20 06:41:09;;;;;;;48.30;19.92;;;2.90;99.90;;;;;;5053651;28;20415;-74
2024/01/20 06:43:34;;;;;;;49.67;20.25;;;2.90;99.90;;;;;;5058569;28;20013;-73
2024/01/20 06:46:00;;;;;;;43.95;22.02;;;2.90;99.90;;;;;;5050978;28;20030;-72
2024/01/20 06:48:26;;;;;;;37.63;19.33;;;2.80;99.90;;;;;;5053301;28;20029;-73
2024/01/20 06:50:52;;;;;;;52.67;22.48;;;2.80;99.90;;;;;;5053432;28;20021;-73
2024/01/20 06:53:18;;;;;;;49.28;20.17;;;2.80;99.90;;;;;;5053113;28;20027;-73
2024/01/20 06:55:43;;;;;;;46.83;21.80;;;2.70;99.90;;;;;;5050830;28;20025;-74
2024/01/20 06:58:09;;;;;;;46.00;21.35;;;2.70;99.90;;;;;;5052947;28;20025;-72
2024/01/20 07:00:34;;;;;;;48.92;21.88;;;2.70;99.90;;;;;;5046412;28;20033;-73
2024/01/20 07:03:00;;;;;;;48.40;22.23;;;2.60;99.90;;;;;;5052111;28;20024;-73
2024/01/20 07:05:26;;;;;;;52.17;22.08;;;2.60;99.90;;;;;;5052540;28;20490;-72
2024/01/20 07:07:51;;;;;;;48.50;22.10;;;2.60;99.90;;;;;;5052678;28;20032;-71
2024/01/20 07:10:17;;;;;;;52.25;21.88;;;2.50;99.90;;;;;;5052666;28;20037;-72
2024/01/20 07:12:42;;;;;;;51.33;22.10;;;2.50;99.90;;;;;;5050090;28;20033;-72
2024/01/20 07:15:08;;;;;;;63.55;24.33;;;2.50;99.90;;;;;;5050058;28;20400;-74
2024/01/20 07:17:34;;;;;;;55.88;23.00;;;2.50;99.90;;;;;;5052890;28;20472;-73
2024/01/20 07:20:00;;;;;;;51.63;23.15;;;2.40;99.90;;;;;;5052859;28;20017;-76
2024/01/20 07:22:26;;;;;;;50.88;24.08;;;2.40;99.90;;;;;;5053206;28;20096;-76
2024/01/20 07:24:52;;;;;;;46.63;22.77;;;2.40;99.90;;;;;;5053155;28;20021;-75
2024/01/20 07:27:18;;;;;;;44.40;23.58;;;2.40;99.90;;;;;;5052814;28;20028;-73
2024/01/20 07:29:43;;;;;;;59.58;24.75;;;2.40;99.90;;;;;;5052559;28;20040;-73
2024/01/20 07:32:09;;;;;;;46.10;23.48;;;2.40;99.90;;;;;;5052638;28;20545;-72
2024/01/20 07:34:34;;;;;;;57.08;24.38;;;2.40;99.90;;;;;;5054429;28;20021;-74
2024/01/20 07:37:00;;;;;;;50.30;23.40;;;2.40;99.90;;;;;;5055454;28;20468;-73
2024/01/20 07:39:25;;;;;;;52.28;23.85;;;2.40;99.90;;;;;;5052403;28;20028;-73
2024/01/20 07:41:51;;;;;;;54.42;24.10;;;2.40;99.90;;;;;;5052474;28;20036;-73
2024/01/20 07:44:17;;;;;;;51.17;24.60;;;2.40;99.90;;;;;;5052327;28;20525;-73
2024/01/20 07:46:43;;;;;;;53.88;23.85;;;2.40;99.90;;;;;;5052276;28;20025;-73
2024/01/20 07:49:08;;;;;;;58.10;25.13;;;2.40;99.90;;;;;;5051858;28;20029;-74
2024/01/20 07:51:34;;;;;;;57.10;23.40;;;2.40;99.90;;;;;;5053608;28;20041;-74
2024/01/20 07:54:00;;;;;;;60.22;23.60;;;2.40;99.90;;;;;;5052723;28;20028;-74
2024/01/20 07:56:25;;;;;;;47.80;23.60;;;2.50;99.90;;;;;;5051800;28;20040;-74
2024/01/20 07:58:51;;;;;;;56.67;23.83;;;2.50;99.90;;;;;;5051908;28;20502;-74
2024/01/20 08:01:17;;;;;;;53.92;22.40;;;2.50;99.90;;;;;;5052058;28;20021;-75
2024/01/20 08:03:43;;;;;;;50.90;23.85;;;2.50;99.90;;;;;;5051824;28;20037;-74
2024/01/20 08:06:09;;;;;;;56.88;23.88;;;2.50;99.90;;;;;;5051752;28;20021;-73
2024/01/20 08:08:34;;;;;;;49.45;23.58;;;2.60;99.90;;;;;;5052142;28;20040;-72
2024/01/20 08:11:00;;;;;;;51.00;24.17;;;2.60;99.90;;;;;;5052844;28;20027;-73
2024/01/20 08:13:26;;;;;;;57.83;23.55;;;2.60;99.90;;;;;;5052644;28;20033;-73
2024/01/20 08:15:52;;;;;;;57.10;23.58;;;2.60;99.90;;;;;;5052187;28;20029;-74
2024/01/20 08:18:18;;;;;;;48.22;23.15;;;2.60;99.90;;;;;;5051851;28;20333;-74
2024/01/20 08:20:43;;;;;;;56.53;23.10;;;2.70;99.90;;;;;;5051938;28;20025;-73
2024/01/20 08:23:09;;;;;;;75.82;27.63;;;2.70;99.90;;;;;;5052539;28;20047;-75
2024/01/20 08:25:34;;;;;;;59.63;23.58;;;2.70;99.90;;;;;;5051484;28;20025;-72
2024/01/20 08:28:00;;;;;;;59.40;25.40;;;2.70;99.90;;;;;;5051606;28;20031;-72
2024/01/20 08:30:26;;;;;;;55.60;24.95;;;2.80;99.90;;;;;;5051437;28;20503;-71
2024/01/20 08:32:52;;;;;;;61.05;23.88;;;2.80;99.90;;;;;;5051388;28;20021;-73
2024/01/20 08:35:17;;;;;;;59.40;26.08;;;2.90;99.90;;;;;;5051088;28;20035;-73
2024/01/20 08:37:43;;;;;;;54.72;24.58;;;3.00;99.90;;;;;;5051802;28;20384;-74
2024/01/20 08:40:08;;;;;;;58.85;23.95;;;3.00;99.90;;;;;;5052204;28;20049;-73
2024/01/20 08:42:34;;;;;;;59.00;24.38;;;3.10;99.90;;;;;;5051670;28;20044;-73
2024/01/20 08:45:00;;;;;;;56.10;24.48;;;3.20;99.90;;;;;;5049817;28;20086;-74
2024/01/20 08:47:25;;;;;;;61.88;25.50;;;3.20;99.90;;;;;;5052230;28;20029;-74
2024/01/20 08:49:54;;;;;;;66.07;25.15;;;3.30;99.90;;;;;;5051738;28;20032;-74
2024/01/20 08:52:19;;;;;;;67.13;25.13;;;3.60;99.90;;;;;;5051632;28;20029;-71
2024/01/20 08:54:45;;;;;;;52.50;22.45;;;4.00;99.80;;;;;;5051707;28;20046;-74
2024/01/20 08:57:11;;;;;;;60.22;23.00;;;4.50;94.30;;;;;;5050594;28;20081;-75
2024/01/20 08:59:36;;;;;;;55.33;22.08;;;4.90;86.60;;;;;;5051878;28;20057;-75
2024/01/20 09:02:03;;;;;;;48.55;22.30;;;5.20;80.50;;;;;;5055572;28;20028;-75
2024/01/20 09:04:29;;;;;;;54.28;22.45;;;5.40;68.50;;;;;;5056507;28;20668;-77
2024/01/20 09:06:54;;;;;;;54.72;23.73;;;5.40;63.60;;;;;;5056198;28;20021;-74
2024/01/20 09:09:20;;;;;;;52.92;22.80;;;5.30;58.40;;;;;;5056034;28;20079;-75
2024/01/20 09:11:46;;;;;;;57.30;23.42;;;5.00;68.30;;;;;;5055044;28;20028;-73
2024/01/20 09:14:11;;;;;;;62.28;24.38;;;4.60;80.50;;;;;;5055571;28;20036;-73
2024/01/20 09:16:37;;;;;;;59.10;23.67;;;4.50;87.70;;;;;;5053925;28;20025;-72
2024/01/20 09:19:02;;;;;;;60.75;22.58;;;4.30;89.70;;;;;;5054794;28;20032;-74
2024/01/20 09:21:29;;;;;;;61.13;24.90;;;4.10;91.90;;;;;;5054786;28;20067;-75
2024/01/20 09:23:54;;;;;;;61.53;23.75;;;4.10;92.60;;;;;;5054703;28;20051;-74
2024/01/20 09:26:20;;;;;;;60.25;25.00;;;4.20;92.40;;;;;;5053860;28;20025;-75
2024/01/20 09:28:46;;;;;;;61.63;23.45;;;4.20;92.30;;;;;;5054947;28;20178;-75
2024/01/20 09:31:12;;;;;;;59.85;23.60;;;4.30;93.30;;;;;;5054770;28;20021;-74
2024/01/20 09:33:37;;;;;;;61.28;23.15;;;4.30;91.30;;;;;;5054527;28;20040;-73
2024/01/20 09:36:03;;;;;;;60.78;22.50;;;4.60;91.10;;;;;;5052210;28;20036;-73
2024/01/20 09:38:29;;;;;;;55.70;23.40;;;4.80;81.80;;;;;;5054653;28;20040;-74
2024/01/20 09:40:58;;;;;;;55.53;22.38;;;5.00;82.20;;;;;;5054588;28;20480;-73
2024/01/20 09:43:25;;;;;;;54.38;22.38;;;5.20;67.30;;;;;;5054907;28;20411;-73
2024/01/20 09:45:52;;;;;;;55.90;21.65;;;5.30;64.60;;;;;;5053796;28;20103;-72
2024/01/20 09:48:17;;;;;;;57.33;22.92;;;5.30;64.10;;;;;;5054530;28;20113;-72
2024/01/20 09:50:43;;;;;;;56.40;22.85;;;5.10;67.10;;;;;;5055836;28;20491;-74
2024/01/20 09:53:16;;;;;;;55.97;22.73;;;5.10;73.00;;;;;;5054429;28;20553;-72
2024/01/20 09:55:43;;;;;;;54.20;21.90;;;5.10;69.10;;;;;;5053861;28;20028;-72
2024/01/20 09:58:12;;;;;;;58.42;22.83;;;4.90;73.30;;;;;;5054356;28;20087;-72
2024/01/20 10:00:38;;;;;;;63.97;23.65;;;4.80;77.90;;;;;;5054201;28;20017;-77
2024/01/20 10:03:07;;;;;;;72.22;23.88;;;4.80;76.10;;;;;;5054350;28;20033;-73
2024/01/20 10:05:33;;;;;;;54.33;22.92;;;4.80;76.90;;;;;;5053764;28;20463;-73
2024/01/20 10:08:00;;;;;;;50.58;21.98;;;4.80;79.00;;;;;;5053771;28;20037;-73
2024/01/20 10:10:25;;;;;;;54.25;22.25;;;4.90;80.90;;;;;;5053881;28;20036;-74
2024/01/20 10:12:53;;;;;;;54.80;22.17;;;5.00;76.90;;;;;;5053193;28;20021;-74
2024/01/20 10:15:22;;;;;;;61.55;21.80;;;4.90;77.40;;;;;;5053516;28;20025;-74
2024/01/20 10:17:48;;;;;;;62.45;22.70;;;4.90;76.10;;;;;;5054012;28;20025;-74
2024/01/20 10:20:25;;;;;;;56.72;22.48;;;4.80;81.00;;;;;;5054286;28;20020;-76
2024/01/20 10:22:51;;;;;;;48.60;21.05;;;4.80;78.50;;;;;;5055232;28;20414;-75
2024/01/20 10:25:20;;;;;;;60.70;22.80;;;4.90;83.30;;;;;;5054098;28;20373;-76
2024/01/20 10:27:47;;;;;;;52.33;21.15;;;4.70;83.50;;;;;;5054344;28;20024;-77
2024/01/20 10:30:18;;;;;;;52.97;22.20;;;4.70;84.10;;;;;;5060111;28;20028;-76
2024/01/20 10:32:44;;;;;;;57.80;22.60;;;4.60;85.20;;;;;;5060790;28;20032;-76
2024/01/20 10:35:10;;;;;;;52.28;21.70;;;4.70;90.00;;;;;;5056099;28;20033;-77
2024/01/20 10:37:50;;;;;;;60.97;23.23;;;4.90;86.20;;;;;;5054345;28;20037;-77
2024/01/20 10:40:17;;;;;;;49.72;21.17;;;4.90;83.80;;;;;;5053896;28;20083;-77
2024/01/20 10:42:45;;;;;;;50.85;22.63;;;5.00;78.50;;;;;;5055879;28;20124;-76
2024/01/20 10:45:17;;;;;;;57.97;22.58;;;5.20;75.70;;;;;;5053606;28;20392;-77
2024/01/20 10:47:57;;;;;;;50.42;21.08;;;5.20;73.00;;;;;;5053733;28;20108;-77
2024/01/20 10:50:24;;;;;;;62.80;21.48;;;5.30;66.70;;;;;;5053602;28;20451;-77
2024/01/20 10:52:51;;;;;;;56.50;20.70;;;5.30;70.30;;;;;;5054134;28;20060;-75
2024/01/20 10:55:18;;;;;;;54.08;20.35;;;5.30;71.20;;;;;;5052643;28;20495;-75
2024/01/20 10:57:48;;;;;;;57.95;21.67;;;5.40;65.10;;;;;;5053181;28;20028;-74
2024/01/20 11:00:15;;;;;;;61.22;20.58;;;5.40;63.30;;;;;;5052933;28;20021;-72
2024/01/20 11:02:41;;;;;;;48.03;21.48;;;5.40;64.10;;;;;;5053532;28;20025;-75
2024/01/20 11:05:23;;;;;;;50.35;21.27;;;5.50;61.20;;;;;;5053132;28;20066;-72
2024/01/20 11:08:22;;;;;;;51.03;21.00;;;5.40;63.10;;;;;;5058862;28;20063;-75
2024/01/20 11:10:51;;;;;;;59.17;20.90;;;5.50;63.40;;;;;;5054936;28;20028;-75
2024/01/20 11:13:16;;;;;;;55.58;20.42;;;5.50;61.10;;;;;;5063623;28;20029;-73
2024/01/20 11:15:49;;;;;;;52.85;20.52;;;5.50;62.90;;;;;;5059552;28;20033;-74
2024/01/20 11:18:16;;;;;;;55.30;21.02;;;5.50;62.40;;;;;;5052744;28;20071;-76
2024/01/20 11:20:53;;;;;;;43.88;18.77;;;5.60;59.60;;;;;;5053740;28;20081;-76
2024/01/20 11:23:19;;;;;;;56.65;20.58;;;5.60;67.50;;;;;;5053273;28;20025;-73
2024/01/20 11:25:45;;;;;;;45.53;19.50;;;5.70;57.80;;;;;;5052820;28;20234;-74
2024/01/20 11:28:21;;;;;;;43.08;19.90;;;5.80;55.20;;;;;;5053658;28;20123;-76
2024/01/20 11:30:47;;;;;;;49.20;19.95;;;5.90;51.40;;;;;;5057811;28;20025;-76
2024/01/20 11:33:15;;;;;;;51.10;19.63;;;6.00;51.30;;;;;;5067431;28;20051;-75
2024/01/20 11:35:41;;;;;;;59.22;20.00;;;5.90;50.60;;;;;;5052145;28;20057;-75
2024/01/20 11:38:07;;;;;;;49.22;20.40;;;5.80;38.40;;;;;;5056222;28;20037;-76
2024/01/20 11:40:33;;;;;;;55.33;22.17;;;5.70;27.00;;;;;;5063091;28;20074;-75
2024/01/20 11:43:06;;;;;;;50.45;19.85;;;5.60;29.10;;;;;;5059867;28;20050;-76
2024/01/20 11:45:31;;;;;;;48.80;19.10;;;5.50;33.00;;;;;;5052538;28;20029;-75
2024/01/20 11:47:57;;;;;;;46.78;19.75;;;5.50;38.40;;;;;;5052117;28;20499;-75
2024/01/20 11:50:23;;;;;;;48.63;20.10;;;5.50;36.30;;;;;;5052928;28;20036;-77
2024/01/20 11:52:48;;;;;;;42.60;18.05;;;5.40;40.50;;;;;;5052309;28;20024;-76
2024/01/20 11:55:14;;;;;;;46.65;18.60;;;5.40;38.60;;;;;;5052996;28;20047;-79
2024/01/20 11:57:40;;;;;;;44.05;17.58;;;5.20;45.50;;;;;;5053108;28;20025;-75
2024/01/20 12:00:06;;;;;;;44.08;17.80;;;5.30;52.00;;;;;;5052846;28;20021;-75
2024/01/20 12:02:32;;;;;;;49.28;18.08;;;5.40;46.70;;;;;;5053296;28;20024;-72
2024/01/20 12:04:58;;;;;;;47.95;18.42;;;5.40;47.40;;;;;;5052265;28;20021;-75
2024/01/20 12:07:24;;;;;;;43.03;17.88;;;5.50;41.60;;;;;;5051985;28;20068;-74
2024/01/20 12:09:51;;;;;;;45.03;16.27;;;5.50;38.30;;;;;;5051608;28;20495;-73
2024/01/20 12:12:17;;;;;;;47.80;18.13;;;5.50;42.50;;;;;;5054516;28;20032;-75
2024/01/20 12:14:44;;;;;;;55.00;18.05;;;5.60;34.80;;;;;;5061534;28;20044;-76
2024/01/20 12:17:11;;;;;;;46.33;18.55;;;5.60;32.20;;;;;;5058692;28;20411;-74
2024/01/20 12:19:40;;;;;;;49.33;17.67;;;5.50;36.50;;;;;;5059464;28;20029;-74
2024/01/20 12:22:12;;;;;;;49.42;18.17;;;5.50;38.10;;;;;;5059350;28;20049;-74
2024/01/20 12:24:37;;;;;;;48.67;16.95;;;5.40;42.90;;;;;;5059578;28;20024;-74
2024/01/20 12:27:06;;;;;;;46.13;16.75;;;5.40;47.90;;;;;;5053544;28;20431;-73
2024/01/20 12:29:32;;;;;;;51.35;18.70;;;5.40;45.90;;;;;;5051408;28;20025;-74
2024/01/20 12:31:58;;;;;;;44.33;16.33;;;5.40;43.70;;;;;;5051669;28;20041;-76
2024/01/20 12:34:27;;;;;;;46.78;18.90;;;5.50;53.20;;;;;;5051695;28;20025;-73